createdAt,value
2023-04-27T00:01:44.072Z,100791.06
2023-04-27T00:04:11.721Z,100777.84
2023-04-27T00:06:38.684Z,100781.38
2023-04-27T00:09:05.625Z,100776.13
2023-04-27T00:11:32.973Z,100776.31
2023-04-27T00:13:59.871Z,100769.50
2023-04-27T00:16:27.140Z,100767.81
2023-04-27T00:18:54.297Z,100765.16
2023-04-27T00:21:21.280Z,100761.03
2023-04-27T00:23:48.342Z,100751.06
2023-04-27T00:26:15.276Z,100765.53
2023-04-27T00:28:42.222Z,100753.50
2023-04-27T00:31:09.218Z,100755.91
2023-04-27T00:33:36.490Z,100761.06
2023-04-27T00:36:03.594Z,100752.97
2023-04-27T00:38:31.503Z,100751.81
2023-04-27T00:41:07.452Z,100756.66
2023-04-27T00:43:43.973Z,100752.81
2023-04-27T00:46:13.648Z,100744.72
2023-04-27T00:48:41.886Z,100743.03
2023-04-27T00:51:09.270Z,100747.72
2023-04-27T00:53:37.313Z,100749.41
2023-04-27T00:56:06.140Z,100750.44
2023-04-27T00:58:33.546Z,100749.41
2023-04-27T01:01:01.468Z,100748.72
2023-04-27T01:03:28.670Z,100755.13
2023-04-27T01:05:57.062Z,100762.50
2023-04-27T01:08:24.138Z,100758.78
2023-04-27T01:10:51.079Z,100763.34
2023-04-27T01:13:18.240Z,100767.91
2023-04-27T01:15:45.138Z,100773.28
2023-04-27T01:18:12.066Z,100773.44
2023-04-27T01:20:39.096Z,100764.31
2023-04-27T01:23:06.532Z,100773.28
2023-04-27T01:25:33.505Z,100772.72
2023-04-27T01:28:00.403Z,100770.59
2023-04-27T01:30:29.112Z,100763.47
2023-04-27T01:32:56.705Z,100763.34
2023-04-27T01:35:24.787Z,100775.25
2023-04-27T01:37:53.365Z,100771.84
2023-04-27T01:40:20.248Z,100771.00
2023-04-27T01:42:47.186Z,100786.34
2023-04-27T01:45:14.082Z,100772.16
2023-04-27T01:47:41.378Z,100777.41
2023-04-27T01:50:08.773Z,100770.16
2023-04-27T01:52:36.002Z,100774.53
2023-04-27T01:55:03.389Z,100776.97
2023-04-27T01:57:30.274Z,100773.56
2023-04-27T01:59:57.551Z,100766.19
2023-04-27T02:02:24.648Z,100764.19
2023-04-27T02:04:52.062Z,100768.28
2023-04-27T02:07:19.154Z,100766.28
2023-04-27T02:09:46.046Z,100762.34
2023-04-27T02:12:13.336Z,100773.53
2023-04-27T02:14:40.215Z,100771.84
2023-04-27T02:17:07.109Z,100768.41
2023-04-27T02:19:34.070Z,100763.03
2023-04-27T02:22:00.959Z,100764.88
2023-04-27T02:24:28.085Z,100757.13
2023-04-27T02:26:54.963Z,100758.94
2023-04-27T02:29:21.885Z,100750.00
2023-04-27T02:31:49.483Z,100758.94
2023-04-27T02:34:16.724Z,100760.78
2023-04-27T02:36:43.879Z,100754.25
2023-04-27T02:39:10.780Z,100749.72
2023-04-27T02:41:37.657Z,100755.13
2023-04-27T02:44:04.796Z,100751.72
2023-04-27T02:46:31.723Z,100748.28
2023-04-27T02:48:58.686Z,100742.06
2023-04-27T02:51:26.351Z,100742.06
2023-04-27T02:53:54.474Z,100743.91
2023-04-27T02:56:21.712Z,100733.84
2023-04-27T02:58:49.295Z,100729.44
2023-04-27T03:01:17.715Z,100721.66
2023-04-27T03:03:48.536Z,100726.91
2023-04-27T03:06:15.665Z,100724.34
2023-04-27T03:08:42.661Z,100724.22
2023-04-27T03:11:10.021Z,100721.66
2023-04-27T03:13:42.236Z,100716.28
2023-04-27T03:16:12.998Z,100723.06
2023-04-27T03:18:40.500Z,100727.88
2023-04-27T03:21:07.487Z,100723.66
2023-04-27T03:23:35.063Z,100721.66
2023-04-27T03:26:10.145Z,100714.28
2023-04-27T03:28:37.356Z,100709.16
2023-04-27T03:31:11.712Z,100700.94
2023-04-27T03:33:39.814Z,100697.81
2023-04-27T03:36:08.874Z,100692.44
2023-04-27T03:38:37.076Z,100693.41
2023-04-27T03:41:04.024Z,100695.25
2023-04-27T03:43:31.126Z,100694.56
2023-04-27T03:45:58.217Z,100688.03
2023-04-27T03:48:25.248Z,100702.47
2023-04-27T03:50:52.252Z,100703.03
2023-04-27T03:53:19.856Z,100684.91
2023-04-27T03:55:47.423Z,100693.56
2023-04-27T03:58:14.428Z,100687.31
2023-04-27T04:00:41.398Z,100690.44
2023-04-27T04:03:08.995Z,100683.63
2023-04-27T04:05:36.300Z,100686.06
2023-04-27T04:08:03.731Z,100684.22
2023-04-27T04:10:30.630Z,100690.19
2023-04-27T04:12:57.528Z,100684.25
2023-04-27T04:15:24.542Z,100683.69
2023-04-27T04:17:51.556Z,100680.91
2023-04-27T04:20:18.512Z,100683.19
2023-04-27T04:22:45.783Z,100688.00
2023-04-27T04:25:13.303Z,100680.38
2023-04-27T04:27:41.348Z,100684.06
2023-04-27T04:30:09.107Z,100680.09
2023-04-27T04:32:38.141Z,100678.97
2023-04-27T04:35:08.741Z,100683.63
2023-04-27T04:37:35.933Z,100673.88
2023-04-27T04:40:09.368Z,100686.34
2023-04-27T04:42:39.359Z,100691.72
2023-04-27T04:45:07.527Z,100681.69
2023-04-27T04:47:34.695Z,100680.09
2023-04-27T04:50:01.811Z,100669.34
2023-04-27T04:52:28.709Z,100673.88
2023-04-27T04:54:55.592Z,100670.47
2023-04-27T04:57:22.486Z,100672.47
2023-04-27T04:59:49.408Z,100669.47
2023-04-27T05:02:16.768Z,100671.78
2023-04-27T05:04:43.768Z,100677.31
2023-04-27T05:07:14.557Z,100678.16
2023-04-27T05:09:42.043Z,100662.00
2023-04-27T05:12:09.230Z,100660.31
2023-04-27T05:14:36.288Z,100661.16
2023-04-27T05:17:03.481Z,100660.00
2023-04-27T05:19:31.477Z,100658.69
2023-04-27T05:22:01.476Z,100651.78
2023-04-27T05:24:28.389Z,100655.72
2023-04-27T05:26:55.484Z,100661.81
2023-04-27T05:29:22.988Z,100666.47
2023-04-27T05:31:50.033Z,100663.63
2023-04-27T05:34:17.260Z,100654.25
2023-04-27T05:36:44.215Z,100662.75
2023-04-27T05:39:11.588Z,100656.34
2023-04-27T05:41:38.979Z,100653.09
2023-04-27T05:44:06.855Z,100651.78
2023-04-27T05:46:34.626Z,100652.34
2023-04-27T05:49:02.245Z,100638.41
2023-04-27T05:51:29.477Z,100645.03
2023-04-27T05:53:56.456Z,100648.44
2023-04-27T05:56:23.588Z,100644.84
2023-04-27T05:58:50.510Z,100649.38
2023-04-27T06:01:17.633Z,100655.19
2023-04-27T06:03:45.295Z,100651.88
2023-04-27T06:06:12.879Z,100648.84
2023-04-27T06:08:40.440Z,100640.34
2023-04-27T06:11:07.440Z,100635.16
2023-04-27T06:13:34.400Z,100634.56
2023-04-27T06:16:02.326Z,100637.06
2023-04-27T06:18:29.348Z,100625.63
2023-04-27T06:21:02.662Z,100621.31
2023-04-27T06:23:29.733Z,100621.88
2023-04-27T06:25:56.725Z,100622.06
2023-04-27T06:28:23.650Z,100618.06
2023-04-27T06:30:50.540Z,100625.84
2023-04-27T06:33:17.536Z,100630.31
2023-04-27T06:35:47.449Z,100627.53
2023-04-27T06:38:14.749Z,100616.56
2023-04-27T06:40:41.711Z,100619.66
2023-04-27T06:43:08.659Z,100620.25
2023-04-27T06:45:36.494Z,100616.06
2023-04-27T06:48:03.676Z,100616.09
2023-04-27T06:50:31.464Z,100629.00
2023-04-27T06:52:58.566Z,100632.44
2023-04-27T06:55:25.924Z,100630.81
2023-04-27T06:57:53.074Z,100632.31
2023-04-27T07:00:20.344Z,100625.91
2023-04-27T07:02:47.683Z,100633.16
2023-04-27T07:05:14.659Z,100632.84
2023-04-27T07:07:41.703Z,100633.84
2023-04-27T07:10:09.533Z,100635.22
2023-04-27T07:12:38.648Z,100643.81
2023-04-27T07:15:07.432Z,100636.56
2023-04-27T07:17:35.949Z,100645.00
2023-04-27T07:20:07.594Z,100645.16
2023-04-27T07:22:34.611Z,100647.34
2023-04-27T07:25:01.514Z,100651.94
2023-04-27T07:27:28.621Z,100649.06
2023-04-27T07:29:55.496Z,100642.31
2023-04-27T07:32:22.922Z,100642.69
2023-04-27T07:34:54.140Z,100645.75
2023-04-27T07:37:23.139Z,100641.41
2023-04-27T07:39:54.680Z,100637.03
2023-04-27T07:42:25.319Z,100644.19
2023-04-27T07:44:52.780Z,100640.81
2023-04-27T07:47:20.068Z,100645.91
2023-04-27T07:49:47.429Z,100641.03
2023-04-27T07:52:14.836Z,100640.34
2023-04-27T07:54:41.780Z,100640.50
2023-04-27T07:57:11.854Z,100636.94
2023-04-27T07:59:39.372Z,100629.16
2023-04-27T08:02:17.701Z,100628.34
2023-04-27T08:04:46.955Z,100629.16
2023-04-27T08:07:17.255Z,100635.16
2023-04-27T08:09:45.145Z,100626.53
2023-04-27T08:12:12.111Z,100625.00
2023-04-27T08:14:39.167Z,100614.69
2023-04-27T08:17:06.581Z,100612.00
2023-04-27T08:19:33.523Z,100611.16
2023-04-27T08:22:01.343Z,100602.03
2023-04-27T08:24:28.224Z,100593.91
2023-04-27T08:26:55.395Z,100591.03
2023-04-27T08:29:27.724Z,100584.63
2023-04-27T08:31:59.769Z,100579.03
2023-04-27T08:34:28.171Z,100567.88
2023-04-27T08:36:56.001Z,100575.31
2023-04-27T08:39:24.233Z,100585.28
2023-04-27T08:41:51.153Z,100581.75
2023-04-27T08:44:18.720Z,100578.53
2023-04-27T08:46:46.050Z,100577.00
2023-04-27T08:49:16.025Z,100585.81
2023-04-27T08:51:44.553Z,100583.25
2023-04-27T08:54:11.634Z,100577.53
2023-04-27T08:56:39.396Z,100573.31
2023-04-27T08:59:15.570Z,100577.34
2023-04-27T09:01:49.187Z,100565.19
2023-04-27T09:04:17.058Z,100563.63
2023-04-27T09:06:44.080Z,100560.75
2023-04-27T09:09:11.607Z,100557.56
2023-04-27T09:11:40.064Z,100555.19
2023-04-27T09:14:20.144Z,100550.63
2023-04-27T09:16:59.708Z,100550.59
2023-04-27T09:19:31.174Z,100546.06
2023-04-27T09:22:11.272Z,100547.56
2023-04-27T09:24:38.563Z,100541.16
2023-04-27T09:27:07.662Z,100534.53
2023-04-27T09:29:39.154Z,100543.00
2023-04-27T09:32:21.102Z,100539.59
2023-04-27T09:34:48.326Z,100539.25
2023-04-27T09:37:16.112Z,100528.25
2023-04-27T09:39:43.536Z,100518.59
2023-04-27T09:42:12.959Z,100517.72
2023-04-27T09:44:40.175Z,100528.72
2023-04-27T09:47:07.822Z,100529.22
2023-04-27T09:49:35.228Z,100531.91
2023-04-27T09:52:02.108Z,100528.53
2023-04-27T09:54:34.074Z,100524.13
2023-04-27T09:57:32.558Z,100532.28
2023-04-27T10:00:21.460Z,100524.16
2023-04-27T10:03:18.216Z,100519.72
2023-04-27T10:06:28.901Z,100520.25
2023-04-27T10:08:57.693Z,100510.91
2023-04-27T10:11:41.875Z,100508.88
2023-04-27T10:14:17.682Z,100508.19
2023-04-27T10:16:58.406Z,100506.88
2023-04-27T10:19:26.068Z,100503.16
2023-04-27T10:22:03.946Z,100505.00
2023-04-27T10:24:37.555Z,100509.91
2023-04-27T10:27:09.882Z,100500.56
2023-04-27T10:29:42.854Z,100498.38
2023-04-27T10:32:13.960Z,100487.84
2023-04-27T10:34:41.985Z,100495.63
2023-04-27T10:37:12.188Z,100480.56
2023-04-27T10:39:47.982Z,100484.09
2023-04-27T10:42:28.816Z,100471.03
2023-04-27T10:44:59.290Z,100465.63
2023-04-27T10:47:38.329Z,100463.56
2023-04-27T10:50:07.874Z,100457.81
2023-04-27T10:52:35.043Z,100456.09
2023-04-27T10:55:32.140Z,100447.97
2023-04-27T10:58:00.487Z,100446.91
2023-04-27T11:00:45.055Z,100429.28
2023-04-27T11:03:24.324Z,100434.91
2023-04-27T11:06:03.072Z,100431.47
2023-04-27T11:08:31.036Z,100427.75
2023-04-27T11:10:58.115Z,100427.00
2023-04-27T11:13:28.620Z,100425.13
2023-04-27T11:15:58.493Z,100415.19
2023-04-27T11:18:30.625Z,100415.50
2023-04-27T11:21:15.864Z,100418.22
2023-04-27T11:23:43.556Z,100414.84
2023-04-27T11:26:18.208Z,100409.03
2023-04-27T11:28:59.235Z,100403.34
2023-04-27T11:31:38.932Z,100395.56
2023-04-27T11:34:08.555Z,100393.84
2023-04-27T11:36:36.329Z,100391.88
2023-04-27T11:39:06.620Z,100397.94
2023-04-27T11:41:37.924Z,100391.88
2023-04-27T11:44:10.329Z,100390.47
2023-04-27T11:46:38.278Z,100385.69
2023-04-27T11:49:09.061Z,100387.34
2023-04-27T11:51:39.453Z,100384.28
2023-04-27T11:54:07.726Z,100382.06
2023-04-27T11:56:40.809Z,100374.94
2023-04-27T11:59:23.414Z,100379.19
2023-04-27T12:01:51.986Z,100381.22
2023-04-27T12:04:19.441Z,100379.88
2023-04-27T12:06:47.172Z,100377.81
2023-04-27T12:09:14.252Z,100373.75
2023-04-27T12:11:41.369Z,100379.19
2023-04-27T12:14:08.545Z,100382.91
2023-04-27T12:16:35.891Z,100377.31
2023-04-27T12:19:03.349Z,100375.41
2023-04-27T12:21:30.350Z,100369.25
2023-04-27T12:23:57.264Z,100368.25
2023-04-27T12:26:24.334Z,100368.56
2023-04-27T12:28:51.513Z,100358.19
2023-04-27T12:31:24.733Z,100360.34
2023-04-27T12:33:54.256Z,100362.47
2023-04-27T12:36:21.145Z,100356.88
2023-04-27T12:38:48.112Z,100351.28
2023-04-27T12:41:15.311Z,100358.88
2023-04-27T12:43:43.852Z,100351.41
2023-04-27T12:46:10.918Z,100350.34
2023-04-27T12:48:37.884Z,100344.75
2023-04-27T12:51:05.594Z,100345.22
2023-04-27T12:53:32.934Z,100341.47
2023-04-27T12:56:02.222Z,100337.75
2023-04-27T12:58:29.109Z,100336.50
2023-04-27T13:01:01.129Z,100333.25
2023-04-27T13:03:28.220Z,100334.94
2023-04-27T13:05:55.250Z,100331.03
2023-04-27T13:08:22.208Z,100342.53
2023-04-27T13:10:49.318Z,100334.22
2023-04-27T13:13:16.227Z,100328.31
2023-04-27T13:15:43.243Z,100334.75
2023-04-27T13:18:10.612Z,100328.47
2023-04-27T13:20:38.159Z,100334.56
2023-04-27T13:23:06.158Z,100332.50
2023-04-27T13:25:33.012Z,100331.69
2023-04-27T13:27:59.888Z,100335.50
2023-04-27T13:30:26.848Z,100323.13
2023-04-27T13:32:54.123Z,100321.28
2023-04-27T13:35:21.292Z,100313.81
2023-04-27T13:37:48.605Z,100319.22
2023-04-27T13:40:15.764Z,100313.81
2023-04-27T13:42:42.671Z,100320.91
2023-04-27T13:45:10.643Z,100324.25
2023-04-27T13:47:37.704Z,100324.66
2023-04-27T13:50:10.816Z,100323.78
2023-04-27T13:52:38.990Z,100323.34
2023-04-27T13:55:09.359Z,100319.28
2023-04-27T13:57:36.370Z,100321.09
2023-04-27T14:00:08.144Z,100319.75
2023-04-27T14:02:35.242Z,100315.91
2023-04-27T14:05:02.359Z,100308.00
2023-04-27T14:07:30.885Z,100310.44
2023-04-27T14:09:58.429Z,100304.81
2023-04-27T14:12:25.360Z,100305.25
2023-04-27T14:14:52.216Z,100301.63
2023-04-27T14:17:19.149Z,100298.81
2023-04-27T14:19:46.106Z,100294.41
2023-04-27T14:22:13.365Z,100287.56
2023-04-27T14:24:40.244Z,100292.03
2023-04-27T14:27:10.073Z,100284.09
2023-04-27T14:29:36.989Z,100280.06
2023-04-27T14:32:04.952Z,100274.63
2023-04-27T14:34:31.976Z,100274.91
2023-04-27T14:36:58.818Z,100270.13
2023-04-27T14:39:27.856Z,100266.75
2023-04-27T14:41:54.949Z,100270.78
2023-04-27T14:44:21.842Z,100258.47
2023-04-27T14:46:48.796Z,100261.78
2023-04-27T14:49:16.169Z,100272.06
2023-04-27T14:51:43.751Z,100256.81
2023-04-27T14:54:11.497Z,100262.53
2023-04-27T14:56:38.395Z,100254.38
2023-04-27T14:59:05.958Z,100251.44
2023-04-27T15:01:32.885Z,100243.66
2023-04-27T15:03:59.931Z,100245.31
2023-04-27T15:06:28.878Z,100233.63
2023-04-27T15:08:56.300Z,100233.44
2023-04-27T15:11:23.871Z,100228.03
2023-04-27T15:13:51.107Z,100222.03
2023-04-27T15:16:18.186Z,100211.34
2023-04-27T15:18:45.126Z,100195.31
2023-04-27T15:21:12.361Z,100191.59
2023-04-27T15:23:39.837Z,100185.75
2023-04-27T15:26:06.751Z,100185.75
2023-04-27T15:28:34.265Z,100182.84
2023-04-27T15:31:01.252Z,100179.56
2023-04-27T15:33:28.213Z,100174.50
2023-04-27T15:35:55.246Z,100173.22
2023-04-27T15:38:22.307Z,100173.34
2023-04-27T15:40:49.493Z,100177.25
2023-04-27T15:43:16.700Z,100182.28
2023-04-27T15:45:44.345Z,100178.53
2023-04-27T15:48:12.789Z,100172.22
2023-04-27T15:50:40.565Z,100167.59
2023-04-27T15:53:07.533Z,100169.63
2023-04-27T15:55:34.541Z,100165.22
2023-04-27T15:58:01.395Z,100162.06
2023-04-27T16:00:28.412Z,100162.66
2023-04-27T16:02:55.437Z,100153.19
2023-04-27T16:05:22.580Z,100155.91
2023-04-27T16:07:49.631Z,100150.69
2023-04-27T16:10:16.776Z,100149.63
2023-04-27T16:12:43.768Z,100154.84
2023-04-27T16:15:11.795Z,100153.97
2023-04-27T16:17:39.341Z,100146.47
2023-04-27T16:20:07.661Z,100143.09
2023-04-27T16:22:35.984Z,100141.03
2023-04-27T16:25:04.688Z,100131.69
2023-04-27T16:27:31.838Z,100134.59
2023-04-27T16:29:59.140Z,100128.75
2023-04-27T16:32:26.946Z,100123.31
2023-04-27T16:34:54.032Z,100122.25
2023-04-27T16:37:20.928Z,100111.78
2023-04-27T16:39:47.870Z,100108.06
2023-04-27T16:42:20.274Z,100112.44
2023-04-27T16:44:47.972Z,100105.97
2023-04-27T16:47:15.520Z,100104.88
2023-04-27T16:49:44.377Z,100101.72
2023-04-27T16:52:12.643Z,100097.13
2023-04-27T16:54:39.628Z,100096.44
2023-04-27T16:57:08.016Z,100093.22
2023-04-27T16:59:35.466Z,100089.03
2023-04-27T17:02:16.406Z,100090.44
2023-04-27T17:04:48.559Z,100083.69
2023-04-27T17:07:15.499Z,100086.63
2023-04-27T17:09:42.532Z,100096.38
2023-04-27T17:12:12.520Z,100102.59
2023-04-27T17:14:39.881Z,100093.63
2023-04-27T17:17:07.038Z,100091.28
2023-04-27T17:19:34.082Z,100095.88
2023-04-27T17:22:01.035Z,100098.91
2023-04-27T17:24:27.941Z,100095.38
2023-04-27T17:26:55.225Z,100088.84
2023-04-27T17:29:22.248Z,100100.72
2023-04-27T17:31:50.498Z,100086.88
2023-04-27T17:34:17.993Z,100096.13
2023-04-27T17:36:45.360Z,100086.41
2023-04-27T17:39:15.617Z,100082.69
2023-04-27T17:41:45.996Z,100071.53
2023-04-27T17:44:13.032Z,100080.00
2023-04-27T17:46:49.452Z,100069.03
2023-04-27T17:49:18.401Z,100074.84
2023-04-27T17:51:46.525Z,100078.13
2023-04-27T17:54:13.588Z,100066.63
2023-04-27T17:56:40.629Z,100066.16
2023-04-27T17:59:08.074Z,100069.16
2023-04-27T18:01:35.549Z,100054.31
2023-04-27T18:04:04.592Z,100054.91
2023-04-27T18:06:32.313Z,100045.91
2023-04-27T18:08:59.255Z,100055.09
2023-04-27T18:11:26.193Z,100047.91
2023-04-27T18:13:55.139Z,100047.72
2023-04-27T18:16:22.254Z,100043.50
2023-04-27T18:18:49.178Z,100031.16
2023-04-27T18:21:16.188Z,100036.59
2023-04-27T18:23:44.663Z,100034.91
2023-04-27T18:26:11.984Z,100040.63
2023-04-27T18:28:40.374Z,100032.31
2023-04-27T18:31:15.417Z,100028.00
2023-04-27T18:33:43.620Z,100029.97
2023-04-27T18:36:10.621Z,100027.47
2023-04-27T18:38:37.979Z,100026.06
2023-04-27T18:41:05.336Z,100013.44
2023-04-27T18:43:35.889Z,100009.78
2023-04-27T18:46:04.133Z,100007.44
2023-04-27T18:48:31.084Z,100016.94
2023-04-27T18:50:58.117Z,100003.41
2023-04-27T18:53:27.217Z,100001.28
2023-04-27T18:55:54.866Z,100008.94
2023-04-27T18:58:22.422Z,100002.38
2023-04-27T19:00:49.440Z,99994.63
2023-04-27T19:03:16.816Z,99991.44
2023-04-27T19:05:44.329Z,99998.25
2023-04-27T19:08:11.535Z,99986.31
2023-04-27T19:10:41.331Z,99998.34
2023-04-27T19:13:08.385Z,99991.81
2023-04-27T19:15:35.768Z,99989.28
2023-04-27T19:18:09.923Z,99975.84
2023-04-27T19:20:37.971Z,99976.53
2023-04-27T19:23:05.526Z,99972.25
2023-04-27T19:25:32.548Z,99982.25
2023-04-27T19:28:00.658Z,99977.03
2023-04-27T19:30:27.956Z,99970.94
2023-04-27T19:32:54.980Z,99969.66
2023-04-27T19:35:24.029Z,99968.88
2023-04-27T19:37:51.298Z,99959.75
2023-04-27T19:40:18.688Z,99962.53
2023-04-27T19:42:45.850Z,99960.84
2023-04-27T19:45:12.918Z,99957.81
2023-04-27T19:47:40.032Z,99955.69
2023-04-27T19:50:07.913Z,99957.56
2023-04-27T19:52:34.929Z,99957.25
2023-04-27T19:55:01.944Z,99959.13
2023-04-27T19:57:29.183Z,99956.41
2023-04-27T19:59:57.200Z,99971.13
2023-04-27T20:02:24.427Z,99950.88
2023-04-27T20:04:51.934Z,99953.28
2023-04-27T20:07:19.150Z,99956.66
2023-04-27T20:09:46.099Z,99956.34
2023-04-27T20:12:34.894Z,99955.69
2023-04-27T20:15:03.209Z,99956.03
2023-04-27T20:17:31.533Z,99949.81
2023-04-27T20:19:58.558Z,99957.09
2023-04-27T20:22:25.902Z,99941.38
2023-04-27T20:24:53.195Z,99940.88
2023-04-27T20:27:20.602Z,99946.94
2023-04-27T20:29:48.428Z,99944.09
2023-04-27T20:32:15.336Z,99937.84
2023-04-27T20:34:42.221Z,99940.06
2023-04-27T20:37:10.138Z,99929.09
2023-04-27T20:39:38.301Z,99935.88
2023-04-27T20:42:06.041Z,99940.97
2023-04-27T20:44:34.188Z,99938.63
2023-04-27T20:47:01.681Z,99938.94
2023-04-27T20:49:34.883Z,99926.72
2023-04-27T20:52:03.307Z,99931.66
2023-04-27T20:54:33.057Z,99934.91
2023-04-27T20:57:03.446Z,99933.22
2023-04-27T20:59:30.431Z,99930.00
2023-04-27T21:01:57.358Z,99929.38
2023-04-27T21:04:24.347Z,99926.50
2023-04-27T21:06:51.617Z,99920.25
2023-04-27T21:09:18.609Z,99926.50
2023-04-27T21:11:45.695Z,99914.84
2023-04-27T21:14:12.733Z,99919.28
2023-04-27T21:16:39.708Z,99916.41
2023-04-27T21:19:08.983Z,99916.25
2023-04-27T21:21:35.853Z,99909.72
2023-04-27T21:24:08.244Z,99914.94
2023-04-27T21:26:35.915Z,99904.63
2023-04-27T21:29:05.763Z,99897.91
2023-04-27T21:31:33.779Z,99896.59
2023-04-27T21:34:02.326Z,99891.66
2023-04-27T21:36:30.007Z,99892.19
2023-04-27T21:38:57.893Z,99882.69
2023-04-27T21:41:24.820Z,99884.56
2023-04-27T21:43:51.826Z,99892.84
2023-04-27T21:46:18.892Z,99880.16
2023-04-27T21:48:45.850Z,99887.09
2023-04-27T21:51:12.744Z,99884.22
2023-04-27T21:53:39.977Z,99882.53
2023-04-27T21:56:07.543Z,99875.97
2023-04-27T21:58:34.636Z,99878.56
2023-04-27T22:01:01.747Z,99881.06
2023-04-27T22:03:29.057Z,99876.88
2023-04-27T22:05:57.814Z,99883.97
2023-04-27T22:08:24.915Z,99878.38
2023-04-27T22:10:52.328Z,99876.88
2023-04-27T22:13:19.875Z,99876.22
2023-04-27T22:15:48.722Z,99872.84
2023-04-27T22:18:15.911Z,99870.63
2023-04-27T22:20:43.421Z,99868.59
2023-04-27T22:23:11.032Z,99866.41
2023-04-27T22:25:37.967Z,99860.31
2023-04-27T22:28:05.136Z,99850.69
2023-04-27T22:30:32.117Z,99853.13
2023-04-27T22:32:59.378Z,99847.22
2023-04-27T22:35:27.811Z,99850.94
2023-04-27T22:38:01.283Z,99850.09
2023-04-27T22:40:28.695Z,99848.41
2023-04-27T22:42:56.315Z,99848.41
2023-04-27T22:45:24.518Z,99845.69
2023-04-27T22:47:51.453Z,99844.22
2023-04-27T22:50:19.184Z,99845.03
2023-04-27T22:52:46.104Z,99843.66
2023-04-27T22:55:13.378Z,99849.53
2023-04-27T22:57:41.918Z,99842.66
2023-04-27T23:00:11.763Z,99841.44
2023-04-27T23:02:40.812Z,99840.63
2023-04-27T23:05:09.060Z,99838.56
2023-04-27T23:07:36.411Z,99835.03
2023-04-27T23:10:03.782Z,99829.94
2023-04-27T23:12:31.599Z,99832.81
2023-04-27T23:14:59.475Z,99820.16
2023-04-27T23:17:31.102Z,99823.69
2023-04-27T23:20:02.263Z,99819.31
2023-04-27T23:22:29.542Z,99812.38
2023-04-27T23:24:56.451Z,99814.91
2023-04-27T23:27:25.099Z,99826.59
2023-04-27T23:29:53.010Z,99821.19
2023-04-27T23:32:20.913Z,99824.72
2023-04-27T23:34:47.888Z,99822.06
2023-04-27T23:37:14.783Z,99821.69
2023-04-27T23:39:41.648Z,99826.59
2023-04-27T23:42:08.577Z,99821.19
2023-04-27T23:44:35.634Z,99822.66
2023-04-27T23:47:02.511Z,99807.47
2023-04-27T23:49:29.420Z,99804.13
2023-04-27T23:51:56.357Z,99802.44
2023-04-27T23:54:23.582Z,99801.59
2023-04-27T23:56:51.997Z,99802.94
2023-04-27T23:59:19.120Z,99803.09
